Valle Azzurra — ICEG — position and weather

sailwx.info

Track history (hours):
 
Tides and Currents Weather Stations Pressure Air Temp Water Temp Dewpoint Dewpoint Depression Visibility Wind Speed Wind Dir Waves Ship Positions

Valle Azzurra

Last reported at 2016-Aug-26 21:32 UTC. Time now 2016-Sep-25 02:05 UTC.
Position N 29°21' W 094°44'.
Warning: this ship's position is 29 days out of date.

Length 183 m; draft 7.9 m.

Type: Tanker. MMSI: 247226600.

Date/timePositionNaut miles runAvg speedWind from/ knotsBaromVisibWave heightAir tempDewpointWater temp
2016-Aug-26 21:32N 29°21' W 094°44'1212.3
2016-Aug-26 20:33N 29°30' W 094°53'1211.6
2016-Aug-26 19:33N 29°41' W 094°59'7 7.4
2016-Aug-26 18:33N 29°46' W 095°05'1 0.1
2016-Aug-26 01:33N 29°45' W 095°06'0 0.0
2016-Aug-26 00:33N 29°45' W 095°06'3 2.7
2016-Aug-25 23:33N 29°44' W 095°03'8 7.6
2016-Aug-25 22:33N 29°38' W 094°58'1111.5
2016-Aug-25 21:33N 29°28' W 094°51'20 1.4
2016-Aug-25 07:20N 29°18' W 094°32'0 0.0
2016-Aug-25 06:32N 29°18' W 094°32'0 0.0
2016-Aug-25 02:23N 29°18' W 094°32'  
Track history (hours):
 
Tides and Currents Weather Stations Pressure Air Temp Water Temp Dewpoint Dewpoint Depression Visibility Wind Speed Wind Dir Waves Ship Positions

Valle Azzurra

Last reported at 2016-Aug-26 21:32 UTC. Time now 2016-Sep-25 02:05 UTC.
Position N 29°21' W 094°44'.
Warning: this ship's position is 29 days out of date.

Length 183 m; draft 7.9 m.

Type: Tanker. MMSI: 247226600.

Date/timePositionNaut miles runAvg speedWind from/ knotsBaromVisibWave heightAir tempDewpointWater temp
2016-Aug-26 21:32N 29°21' W 094°44'1212.3
2016-Aug-26 20:33N 29°30' W 094°53'1211.6
2016-Aug-26 19:33N 29°41' W 094°59'7 7.4
2016-Aug-26 18:33N 29°46' W 095°05'1 0.1
2016-Aug-26 01:33N 29°45' W 095°06'0 0.0
2016-Aug-26 00:33N 29°45' W 095°06'3 2.7
2016-Aug-25 23:33N 29°44' W 095°03'8 7.6
2016-Aug-25 22:33N 29°38' W 094°58'1111.5
2016-Aug-25 21:33N 29°28' W 094°51'20 1.4
2016-Aug-25 07:20N 29°18' W 094°32'0 0.0
2016-Aug-25 06:32N 29°18' W 094°32'0 0.0
2016-Aug-25 02:23N 29°18' W 094°32'  

Dump ship's entire track history